createdAt,value
2023-02-13T00:02:26.680Z,3.10
2023-02-13T00:07:30.172Z,2.88
2023-02-13T00:12:35.577Z,3.03
2023-02-13T00:17:38.754Z,3.08
2023-02-13T00:22:41.999Z,3.22
2023-02-13T00:27:46.626Z,2.42
2023-02-13T00:32:49.814Z,2.40
2023-02-13T00:37:52.939Z,2.00
2023-02-13T00:42:57.732Z,2.22
2023-02-13T00:48:00.971Z,1.92
2023-02-13T00:53:04.272Z,1.95
2023-02-13T00:58:08.804Z,1.38
2023-02-13T01:03:12.319Z,2.05
2023-02-13T01:08:17.041Z,1.63
2023-02-13T01:13:22.416Z,1.58
2023-02-13T01:18:25.754Z,1.93
2023-02-13T01:23:31.764Z,1.90
2023-02-13T01:28:36.646Z,1.60
2023-02-13T01:33:41.211Z,1.80
2023-02-13T01:38:44.463Z,1.75
2023-02-13T01:43:54.797Z,2.05
2023-02-13T01:49:01.350Z,1.63
2023-02-13T01:54:09.260Z,1.55
2023-02-13T01:59:19.390Z,2.17
2023-02-13T02:04:26.943Z,2.00
2023-02-13T02:09:33.489Z,2.13
2023-02-13T02:14:40.354Z,2.35
2023-02-13T02:19:51.097Z,2.70
2023-02-13T02:25:12.123Z,3.00
2023-02-13T02:30:56.100Z,3.78
2023-02-13T02:36:12.898Z,3.58
2023-02-13T02:41:44.178Z,3.30
2023-02-13T02:47:26.381Z,2.70
2023-02-13T02:52:42.990Z,2.50
2023-02-13T02:58:14.080Z,3.30
2023-02-13T03:03:38.989Z,3.95
2023-02-13T03:09:05.908Z,3.15
2023-02-13T03:14:11.597Z,3.28
2023-02-13T03:19:41.464Z,3.75
2023-02-13T03:24:53.054Z,3.13
2023-02-13T03:30:07.464Z,4.57
2023-02-13T03:35:46.357Z,4.28
2023-02-13T03:41:13.542Z,5.00
2023-02-13T03:46:18.179Z,6.30
2023-02-13T03:51:27.987Z,6.07
2023-02-13T03:56:53.884Z,8.38
2023-02-13T04:02:01.690Z,7.80
2023-02-13T04:07:08.601Z,6.72
2023-02-13T04:12:18.911Z,5.40
2023-02-13T04:17:27.259Z,5.30
2023-02-13T04:22:31.599Z,7.63
2023-02-13T04:27:36.644Z,5.95
2023-02-13T04:32:39.800Z,5.45
2023-02-13T04:37:43.078Z,7.55
2023-02-13T04:42:49.433Z,6.70
2023-02-13T04:47:54.256Z,5.82
2023-02-13T04:52:58.552Z,8.98
2023-02-13T04:58:03.036Z,7.95
2023-02-13T05:03:07.164Z,6.20
2023-02-13T05:08:10.973Z,6.80
2023-02-13T05:13:17.100Z,5.78
2023-02-13T05:18:20.364Z,6.35
2023-02-13T05:23:23.691Z,5.90
2023-02-13T05:29:03.875Z,4.47
2023-02-13T05:34:07.406Z,6.03
2023-02-13T05:39:10.681Z,6.18
2023-02-13T05:44:15.951Z,6.10
2023-02-13T05:49:19.356Z,7.35
2023-02-13T05:54:22.800Z,5.45
2023-02-13T05:59:27.435Z,5.20
2023-02-13T06:04:30.653Z,5.97
2023-02-13T06:09:33.818Z,4.70
2023-02-13T06:14:38.269Z,5.43
2023-02-13T06:19:42.110Z,6.25
2023-02-13T06:24:45.238Z,5.20
2023-02-13T06:29:49.739Z,5.38
2023-02-13T06:34:52.933Z,6.73
2023-02-13T06:39:56.180Z,5.20
2023-02-13T06:45:01.018Z,4.85
2023-02-13T06:50:05.010Z,5.13
2023-02-13T06:55:08.416Z,6.13
2023-02-13T07:00:16.004Z,5.63
2023-02-13T07:05:19.423Z,5.15
2023-02-13T07:10:22.642Z,5.53
2023-02-13T07:15:28.584Z,4.33
2023-02-13T07:20:32.641Z,5.83
2023-02-13T07:25:35.934Z,5.55
2023-02-13T07:30:40.630Z,5.30
2023-02-13T07:35:46.679Z,5.30
2023-02-13T07:40:49.918Z,5.60
2023-02-13T07:45:57.960Z,4.97
2023-02-13T07:51:02.843Z,4.70
2023-02-13T07:56:06.857Z,6.03
2023-02-13T08:01:14.181Z,4.80
2023-02-13T08:06:17.953Z,5.30
2023-02-13T08:11:45.065Z,4.88
2023-02-13T08:16:49.677Z,6.13
2023-02-13T08:21:52.926Z,4.97
2023-02-13T08:26:56.330Z,5.43
2023-02-13T08:32:00.900Z,5.10
2023-02-13T08:37:04.237Z,4.03
2023-02-13T08:42:07.501Z,5.47
2023-02-13T08:47:12.171Z,4.05
2023-02-13T08:52:15.360Z,4.15
2023-02-13T08:57:18.985Z,5.28
2023-02-13T09:02:24.178Z,6.25
2023-02-13T09:07:27.380Z,5.25
2023-02-13T09:12:30.538Z,4.47
2023-02-13T09:17:35.205Z,5.50
2023-02-13T09:22:39.147Z,5.43
2023-02-13T09:27:42.703Z,4.85
2023-02-13T09:32:47.682Z,5.43
2023-02-13T09:37:50.924Z,5.78
2023-02-13T09:43:04.633Z,6.13
2023-02-13T09:48:14.818Z,7.05
2023-02-13T09:53:23.221Z,6.03
2023-02-13T09:58:39.854Z,5.72
2023-02-13T10:03:48.228Z,6.13
2023-02-13T10:09:04.929Z,5.70
2023-02-13T10:14:16.544Z,5.82
2023-02-13T10:19:34.585Z,6.30
2023-02-13T10:24:42.717Z,6.90
2023-02-13T10:30:06.332Z,6.85
2023-02-13T10:35:21.045Z,7.10
2023-02-13T10:40:32.009Z,6.75
2023-02-13T10:45:51.373Z,7.75
2023-02-13T10:51:02.859Z,7.82
2023-02-13T10:56:25.457Z,7.25
2023-02-13T11:01:36.017Z,7.82
2023-02-13T11:06:44.024Z,7.55
2023-02-13T11:11:47.523Z,8.30
2023-02-13T11:16:54.858Z,7.93
2023-02-13T11:22:04.631Z,8.35
2023-02-13T11:27:13.637Z,7.97
2023-02-13T11:32:22.101Z,7.32
2023-02-13T11:37:28.984Z,8.40
2023-02-13T11:42:35.881Z,8.30
2023-02-13T11:47:41.708Z,7.45
2023-02-13T11:52:54.913Z,8.30
2023-02-13T11:58:00.920Z,8.57
2023-02-13T12:03:26.625Z,7.80
2023-02-13T12:08:33.630Z,8.32
2023-02-13T12:13:39.069Z,8.40
2023-02-13T12:23:57.651Z,8.77
2023-02-13T12:29:23.129Z,7.25
2023-02-13T12:34:59.030Z,6.78
2023-02-13T12:40:32.282Z,8.05
2023-02-13T12:45:41.039Z,7.90
2023-02-13T12:51:02.728Z,7.18
2023-02-13T12:56:35.548Z,8.23
2023-02-13T13:02:10.602Z,6.82
2023-02-13T13:07:29.691Z,7.38
2023-02-13T13:12:45.240Z,7.75
2023-02-13T13:17:58.277Z,6.85
2023-02-13T13:23:08.010Z,7.25
2023-02-13T13:28:17.682Z,6.57
2023-02-13T13:33:23.337Z,6.40
2023-02-13T13:38:41.078Z,6.97
2023-02-13T13:44:02.106Z,6.45
2023-02-13T13:49:24.107Z,6.78
2023-02-13T13:54:37.217Z,7.00
2023-02-13T14:00:20.015Z,8.45
2023-02-13T14:05:30.943Z,7.28
2023-02-13T14:11:25.359Z,6.88
2023-02-13T14:16:40.709Z,6.35
2023-02-13T14:21:45.575Z,6.35
2023-02-13T14:27:04.922Z,6.75
2023-02-13T14:32:19.118Z,6.70
2023-02-13T14:37:32.363Z,6.43
2023-02-13T14:42:36.884Z,8.02
2023-02-13T14:47:42.987Z,7.30
2023-02-13T14:52:48.793Z,6.80
2023-02-13T14:57:54.304Z,6.90
2023-02-13T15:03:02.358Z,6.70
2023-02-13T15:08:13.938Z,6.13
2023-02-13T15:13:20.338Z,6.32
2023-02-13T15:18:26.359Z,6.07
2023-02-13T15:23:32.598Z,6.82
2023-02-13T15:28:36.811Z,7.03
2023-02-13T15:33:45.435Z,8.38
2023-02-13T15:38:50.166Z,7.07
2023-02-13T15:43:57.878Z,7.00
2023-02-13T15:49:05.481Z,8.35
2023-02-13T15:54:23.515Z,8.30
2023-02-13T15:59:32.095Z,8.68
2023-02-13T16:04:35.976Z,7.43
2023-02-13T16:09:40.505Z,7.60
2023-02-13T16:14:49.715Z,8.27
2023-02-13T16:19:56.826Z,6.63
2023-02-13T16:25:20.748Z,8.48
2023-02-13T16:30:30.717Z,8.05
2023-02-13T16:35:38.227Z,8.45
2023-02-13T16:40:44.491Z,9.68
2023-02-13T16:45:47.985Z,8.88
2023-02-13T16:50:55.537Z,8.48
2023-02-13T16:56:03.320Z,10.00
2023-02-13T17:01:07.093Z,10.07
2023-02-13T17:06:10.984Z,7.75
2023-02-13T17:11:18.926Z,8.75
2023-02-13T17:16:25.355Z,7.32
2023-02-13T17:21:29.043Z,8.32
2023-02-13T17:26:34.087Z,10.55
2023-02-13T17:31:37.433Z,10.27
2023-02-13T17:36:40.910Z,9.60
2023-02-13T17:41:45.606Z,8.73
2023-02-13T17:46:49.304Z,9.32
2023-02-13T17:51:52.532Z,8.13
2023-02-13T17:56:57.085Z,7.47
2023-02-13T18:02:00.548Z,8.83
2023-02-13T18:07:03.767Z,8.45
2023-02-13T18:12:13.963Z,16.75
2023-02-13T18:17:18.158Z,13.95
2023-02-13T18:22:21.350Z,10.38
2023-02-13T18:27:27.030Z,9.02
2023-02-13T18:32:30.570Z,8.15
2023-02-13T18:37:34.278Z,9.20
2023-02-13T18:42:39.086Z,9.80
2023-02-13T18:47:42.372Z,8.88
2023-02-13T18:52:46.695Z,9.82
2023-02-13T18:57:53.398Z,7.57
2023-02-13T19:02:58.667Z,8.18
2023-02-13T19:13:06.372Z,9.57
2023-02-13T19:18:09.499Z,10.97
2023-02-13T19:23:13.097Z,10.25
2023-02-13T19:28:17.701Z,8.93
2023-02-13T19:33:21.489Z,9.77
2023-02-13T19:38:24.780Z,9.77
2023-02-13T19:43:29.347Z,8.95
2023-02-13T19:48:33.333Z,11.07
2023-02-13T19:53:36.497Z,11.15
2023-02-13T19:58:42.583Z,11.52
2023-02-13T20:03:45.965Z,11.07
2023-02-13T20:08:49.477Z,10.55
2023-02-13T20:13:55.920Z,11.32
2023-02-13T20:19:01.834Z,10.82
2023-02-13T20:24:05.813Z,10.30
2023-02-13T20:29:10.546Z,9.48
2023-02-13T20:34:14.266Z,11.35
2023-02-13T20:39:18.039Z,8.48
2023-02-13T20:44:22.914Z,9.85
2023-02-13T20:49:26.709Z,10.45
2023-02-13T20:54:30.095Z,9.60
2023-02-13T20:59:34.542Z,9.02
2023-02-13T21:04:38.087Z,10.27
2023-02-13T21:09:41.385Z,8.43
2023-02-13T21:14:45.904Z,10.07
2023-02-13T21:19:49.190Z,9.87
2023-02-13T21:24:52.695Z,8.85
2023-02-13T21:29:58.067Z,9.00
2023-02-13T21:35:01.209Z,8.48
2023-02-13T21:40:05.862Z,10.60
2023-02-13T21:45:11.905Z,9.50
2023-02-13T21:50:15.071Z,11.00
2023-02-13T21:55:18.586Z,9.10
2023-02-13T22:00:23.542Z,9.10
2023-02-13T22:05:26.860Z,9.48
2023-02-13T22:10:29.964Z,7.72
2023-02-13T22:15:34.517Z,8.75
2023-02-13T22:20:37.687Z,9.23
2023-02-13T22:25:46.618Z,9.05
2023-02-13T22:30:51.396Z,10.30
2023-02-13T22:35:54.712Z,8.93
2023-02-13T22:41:04.681Z,9.80
2023-02-13T22:46:12.572Z,9.43
2023-02-13T22:51:18.907Z,9.60
2023-02-13T22:56:23.785Z,10.55
2023-02-13T23:01:29.196Z,8.55
2023-02-13T23:11:54.146Z,8.60
2023-02-13T23:17:17.305Z,10.68
2023-02-13T23:22:20.527Z,9.10
2023-02-13T23:27:23.884Z,9.10
2023-02-13T23:32:29.033Z,8.60
2023-02-13T23:37:32.487Z,8.93
2023-02-13T23:42:35.748Z,8.10
2023-02-13T23:47:40.384Z,8.82
2023-02-13T23:52:43.562Z,8.60
2023-02-13T23:57:51.900Z,9.52
